sensor_id;sensor_type;location;lat;lon;timestamp;P1;durP1;ratioP1;P2;durP2;ratioP2
57191;SDS011;43052;52.588;13.396;2023-04-24T00:00:06;10.95;;;7.13;;
57191;SDS011;43052;52.588;13.396;2023-04-24T00:02:34;10.38;;;6.93;;
57191;SDS011;43052;52.588;13.396;2023-04-24T00:04:59;8.70;;;6.88;;
57191;SDS011;43052;52.588;13.396;2023-04-24T00:07:27;10.00;;;6.38;;
57191;SDS011;43052;52.588;13.396;2023-04-24T00:09:52;10.00;;;6.80;;
57191;SDS011;43052;52.588;13.396;2023-04-24T00:12:17;9.55;;;6.60;;
57191;SDS011;43052;52.588;13.396;2023-04-24T00:14:43;10.00;;;6.93;;
57191;SDS011;43052;52.588;13.396;2023-04-24T00:17:08;8.25;;;6.85;;
57191;SDS011;43052;52.588;13.396;2023-04-24T00:19:33;9.98;;;7.18;;
57191;SDS011;43052;52.588;13.396;2023-04-24T00:21:58;9.30;;;7.32;;
57191;SDS011;43052;52.588;13.396;2023-04-24T00:24:24;9.05;;;7.22;;
57191;SDS011;43052;52.588;13.396;2023-04-24T00:26:49;9.05;;;7.13;;
57191;SDS011;43052;52.588;13.396;2023-04-24T00:29:14;10.07;;;7.20;;
57191;SDS011;43052;52.588;13.396;2023-04-24T00:31:39;8.15;;;6.47;;
57191;SDS011;43052;52.588;13.396;2023-04-24T00:34:05;8.57;;;6.65;;
57191;SDS011;43052;52.588;13.396;2023-04-24T00:36:30;8.25;;;6.88;;
57191;SDS011;43052;52.588;13.396;2023-04-24T00:38:56;9.98;;;7.88;;
57191;SDS011;43052;52.588;13.396;2023-04-24T00:41:21;9.88;;;7.60;;
57191;SDS011;43052;52.588;13.396;2023-04-24T00:43:47;8.95;;;7.18;;
57191;SDS011;43052;52.588;13.396;2023-04-24T00:46:13;8.43;;;7.43;;
57191;SDS011;43052;52.588;13.396;2023-04-24T00:48:39;8.93;;;7.38;;
57191;SDS011;43052;52.588;13.396;2023-04-24T00:51:05;9.82;;;7.63;;
57191;SDS011;43052;52.588;13.396;2023-04-24T00:53:30;10.75;;;7.60;;
57191;SDS011;43052;52.588;13.396;2023-04-24T00:55:56;10.57;;;7.82;;
57191;SDS011;43052;52.588;13.396;2023-04-24T00:58:22;10.23;;;7.85;;
57191;SDS011;43052;52.588;13.396;2023-04-24T01:00:48;13.88;;;7.63;;
57191;SDS011;43052;52.588;13.396;2023-04-24T01:03:13;11.63;;;8.10;;
57191;SDS011;43052;52.588;13.396;2023-04-24T01:05:40;9.38;;;7.38;;
57191;SDS011;43052;52.588;13.396;2023-04-24T01:08:06;8.93;;;7.07;;
57191;SDS011;43052;52.588;13.396;2023-04-24T01:10:32;9.27;;;7.43;;
57191;SDS011;43052;52.588;13.396;2023-04-24T01:12:58;9.98;;;7.32;;
57191;SDS011;43052;52.588;13.396;2023-04-24T01:15:23;8.80;;;7.47;;
57191;SDS011;43052;52.588;13.396;2023-04-24T01:17:49;11.55;;;7.40;;
57191;SDS011;43052;52.588;13.396;2023-04-24T01:20:14;10.48;;;8.05;;
57191;SDS011;43052;52.588;13.396;2023-04-24T01:22:40;11.80;;;8.65;;
57191;SDS011;43052;52.588;13.396;2023-04-24T01:25:06;12.75;;;8.85;;
57191;SDS011;43052;52.588;13.396;2023-04-24T01:27:32;13.70;;;9.15;;
57191;SDS011;43052;52.588;13.396;2023-04-24T01:29:57;11.23;;;8.50;;
57191;SDS011;43052;52.588;13.396;2023-04-24T01:32:23;10.75;;;8.20;;
57191;SDS011;43052;52.588;13.396;2023-04-24T01:34:49;10.18;;;7.57;;
57191;SDS011;43052;52.588;13.396;2023-04-24T01:37:15;10.65;;;7.25;;
57191;SDS011;43052;52.588;13.396;2023-04-24T01:39:41;9.55;;;7.72;;
57191;SDS011;43052;52.588;13.396;2023-04-24T01:42:06;10.52;;;7.20;;
57191;SDS011;43052;52.588;13.396;2023-04-24T01:44:33;8.73;;;7.07;;
57191;SDS011;43052;52.588;13.396;2023-04-24T01:46:58;8.48;;;6.80;;
57191;SDS011;43052;52.588;13.396;2023-04-24T01:49:25;8.82;;;7.57;;
57191;SDS011;43052;52.588;13.396;2023-04-24T01:51:51;8.93;;;6.88;;
57191;SDS011;43052;52.588;13.396;2023-04-24T01:54:16;8.43;;;7.07;;
57191;SDS011;43052;52.588;13.396;2023-04-24T01:56:42;8.85;;;6.70;;
57191;SDS011;43052;52.588;13.396;2023-04-24T01:59:09;7.47;;;6.53;;
57191;SDS011;43052;52.588;13.396;2023-04-24T02:01:35;9.27;;;7.60;;
57191;SDS011;43052;52.588;13.396;2023-04-24T02:04:01;8.93;;;6.72;;
57191;SDS011;43052;52.588;13.396;2023-04-24T02:06:27;8.38;;;6.97;;
57191;SDS011;43052;52.588;13.396;2023-04-24T02:08:52;8.68;;;7.10;;
57191;SDS011;43052;52.588;13.396;2023-04-24T02:11:18;7.80;;;6.55;;
57191;SDS011;43052;52.588;13.396;2023-04-24T02:13:43;9.10;;;6.85;;
57191;SDS011;43052;52.588;13.396;2023-04-24T02:16:09;8.63;;;7.72;;
57191;SDS011;43052;52.588;13.396;2023-04-24T02:18:34;8.57;;;7.25;;
57191;SDS011;43052;52.588;13.396;2023-04-24T02:21:00;8.70;;;7.35;;
57191;SDS011;43052;52.588;13.396;2023-04-24T02:23:25;9.15;;;7.25;;
57191;SDS011;43052;52.588;13.396;2023-04-24T02:25:52;8.60;;;7.50;;
57191;SDS011;43052;52.588;13.396;2023-04-24T02:28:18;8.02;;;7.07;;
57191;SDS011;43052;52.588;13.396;2023-04-24T02:30:43;8.32;;;6.93;;
57191;SDS011;43052;52.588;13.396;2023-04-24T02:33:08;9.43;;;7.55;;
57191;SDS011;43052;52.588;13.396;2023-04-24T02:35:33;10.15;;;8.00;;
57191;SDS011;43052;52.588;13.396;2023-04-24T02:37:59;8.80;;;7.55;;
57191;SDS011;43052;52.588;13.396;2023-04-24T02:40:24;8.57;;;7.38;;
57191;SDS011;43052;52.588;13.396;2023-04-24T02:42:50;10.07;;;7.28;;
57191;SDS011;43052;52.588;13.396;2023-04-24T02:45:15;11.60;;;7.68;;
57191;SDS011;43052;52.588;13.396;2023-04-24T02:47:40;8.88;;;7.32;;
57191;SDS011;43052;52.588;13.396;2023-04-24T02:50:06;10.07;;;8.40;;
57191;SDS011;43052;52.588;13.396;2023-04-24T02:52:32;10.30;;;8.07;;
57191;SDS011;43052;52.588;13.396;2023-04-24T02:54:57;9.25;;;7.55;;
57191;SDS011;43052;52.588;13.396;2023-04-24T02:57:22;10.63;;;7.95;;
57191;SDS011;43052;52.588;13.396;2023-04-24T02:59:48;9.48;;;7.70;;
57191;SDS011;43052;52.588;13.396;2023-04-24T03:02:13;9.15;;;7.93;;
57191;SDS011;43052;52.588;13.396;2023-04-24T03:04:38;10.18;;;8.07;;
57191;SDS011;43052;52.588;13.396;2023-04-24T03:07:04;9.05;;;7.72;;
57191;SDS011;43052;52.588;13.396;2023-04-24T03:09:30;9.80;;;7.30;;
57191;SDS011;43052;52.588;13.396;2023-04-24T03:11:55;10.20;;;7.78;;
57191;SDS011;43052;52.588;13.396;2023-04-24T03:14:21;11.02;;;8.30;;
57191;SDS011;43052;52.588;13.396;2023-04-24T03:16:46;9.75;;;7.80;;
57191;SDS011;43052;52.588;13.396;2023-04-24T03:19:11;9.35;;;7.88;;
57191;SDS011;43052;52.588;13.396;2023-04-24T03:21:37;11.57;;;8.43;;
57191;SDS011;43052;52.588;13.396;2023-04-24T03:24:05;10.40;;;8.50;;
57191;SDS011;43052;52.588;13.396;2023-04-24T03:26:32;11.90;;;8.43;;
57191;SDS011;43052;52.588;13.396;2023-04-24T03:28:57;10.10;;;7.80;;
57191;SDS011;43052;52.588;13.396;2023-04-24T03:31:22;11.23;;;7.70;;
57191;SDS011;43052;52.588;13.396;2023-04-24T03:33:48;9.07;;;7.78;;
57191;SDS011;43052;52.588;13.396;2023-04-24T03:36:13;8.82;;;7.60;;
57191;SDS011;43052;52.588;13.396;2023-04-24T03:38:38;9.57;;;7.88;;
57191;SDS011;43052;52.588;13.396;2023-04-24T03:41:04;8.70;;;7.25;;
57191;SDS011;43052;52.588;13.396;2023-04-24T03:43:29;10.45;;;7.90;;
57191;SDS011;43052;52.588;13.396;2023-04-24T03:45:54;10.77;;;7.80;;
57191;SDS011;43052;52.588;13.396;2023-04-24T03:48:19;9.57;;;8.10;;
57191;SDS011;43052;52.588;13.396;2023-04-24T03:50:45;9.13;;;8.13;;
57191;SDS011;43052;52.588;13.396;2023-04-24T03:53:10;10.05;;;8.07;;
57191;SDS011;43052;52.588;13.396;2023-04-24T03:55:35;9.15;;;7.53;;
57191;SDS011;43052;52.588;13.396;2023-04-24T03:58:00;9.60;;;8.10;;
57191;SDS011;43052;52.588;13.396;2023-04-24T04:00:26;9.23;;;7.28;;
57191;SDS011;43052;52.588;13.396;2023-04-24T04:02:51;8.23;;;7.22;;
57191;SDS011;43052;52.588;13.396;2023-04-24T04:05:16;8.68;;;7.28;;
57191;SDS011;43052;52.588;13.396;2023-04-24T04:07:41;9.13;;;8.23;;
57191;SDS011;43052;52.588;13.396;2023-04-24T04:10:07;9.45;;;7.78;;
57191;SDS011;43052;52.588;13.396;2023-04-24T04:12:32;8.98;;;7.57;;
57191;SDS011;43052;52.588;13.396;2023-04-24T04:14:58;10.95;;;7.82;;
57191;SDS011;43052;52.588;13.396;2023-04-24T04:17:24;10.32;;;7.80;;
57191;SDS011;43052;52.588;13.396;2023-04-24T04:19:49;8.93;;;7.32;;
57191;SDS011;43052;52.588;13.396;2023-04-24T04:22:14;9.73;;;7.43;;
57191;SDS011;43052;52.588;13.396;2023-04-24T04:24:39;11.88;;;7.40;;
57191;SDS011;43052;52.588;13.396;2023-04-24T04:27:05;8.05;;;6.88;;
57191;SDS011;43052;52.588;13.396;2023-04-24T04:29:31;8.93;;;7.53;;
57191;SDS011;43052;52.588;13.396;2023-04-24T04:31:56;8.57;;;7.35;;
57191;SDS011;43052;52.588;13.396;2023-04-24T04:34:22;9.82;;;7.18;;
57191;SDS011;43052;52.588;13.396;2023-04-24T04:36:47;8.52;;;6.80;;
57191;SDS011;43052;52.588;13.396;2023-04-24T04:39:13;8.88;;;6.68;;
57191;SDS011;43052;52.588;13.396;2023-04-24T04:41:39;8.15;;;6.80;;
57191;SDS011;43052;52.588;13.396;2023-04-24T04:44:05;8.73;;;6.40;;
57191;SDS011;43052;52.588;13.396;2023-04-24T04:46:31;9.50;;;6.50;;
57191;SDS011;43052;52.588;13.396;2023-04-24T04:49:02;7.45;;;6.47;;
57191;SDS011;43052;52.588;13.396;2023-04-24T04:51:27;10.00;;;7.28;;
57191;SDS011;43052;52.588;13.396;2023-04-24T04:53:53;9.30;;;7.07;;
57191;SDS011;43052;52.588;13.396;2023-04-24T04:56:18;8.23;;;6.57;;
57191;SDS011;43052;52.588;13.396;2023-04-24T04:58:43;7.57;;;6.65;;
57191;SDS011;43052;52.588;13.396;2023-04-24T05:01:08;8.18;;;6.07;;
57191;SDS011;43052;52.588;13.396;2023-04-24T05:03:34;8.90;;;6.53;;
57191;SDS011;43052;52.588;13.396;2023-04-24T05:05:59;10.27;;;6.45;;
57191;SDS011;43052;52.588;13.396;2023-04-24T05:08:25;7.70;;;6.28;;
57191;SDS011;43052;52.588;13.396;2023-04-24T05:10:50;11.25;;;6.90;;
57191;SDS011;43052;52.588;13.396;2023-04-24T05:13:15;6.72;;;5.32;;
57191;SDS011;43052;52.588;13.396;2023-04-24T05:15:40;6.30;;;5.20;;
57191;SDS011;43052;52.588;13.396;2023-04-24T05:18:05;7.38;;;5.38;;
57191;SDS011;43052;52.588;13.396;2023-04-24T05:20:31;7.47;;;4.88;;
57191;SDS011;43052;52.588;13.396;2023-04-24T05:22:56;8.30;;;5.10;;
57191;SDS011;43052;52.588;13.396;2023-04-24T05:25:21;6.63;;;4.93;;
57191;SDS011;43052;52.588;13.396;2023-04-24T05:27:47;7.25;;;4.93;;
57191;SDS011;43052;52.588;13.396;2023-04-24T05:30:12;6.55;;;4.88;;
57191;SDS011;43052;52.588;13.396;2023-04-24T05:32:38;6.10;;;4.30;;
57191;SDS011;43052;52.588;13.396;2023-04-24T05:35:03;5.90;;;4.07;;
57191;SDS011;43052;52.588;13.396;2023-04-24T05:37:28;6.38;;;4.13;;
57191;SDS011;43052;52.588;13.396;2023-04-24T05:39:54;7.45;;;4.10;;
57191;SDS011;43052;52.588;13.396;2023-04-24T05:42:19;7.40;;;4.90;;
57191;SDS011;43052;52.588;13.396;2023-04-24T05:44:45;5.97;;;4.35;;
57191;SDS011;43052;52.588;13.396;2023-04-24T05:47:10;7.00;;;4.10;;
57191;SDS011;43052;52.588;13.396;2023-04-24T05:49:35;5.20;;;3.95;;
57191;SDS011;43052;52.588;13.396;2023-04-24T05:52:00;6.53;;;4.30;;
57191;SDS011;43052;52.588;13.396;2023-04-24T05:54:26;5.80;;;3.30;;
57191;SDS011;43052;52.588;13.396;2023-04-24T05:56:51;5.28;;;2.97;;
57191;SDS011;43052;52.588;13.396;2023-04-24T05:59:19;3.22;;;2.83;;
57191;SDS011;43052;52.588;13.396;2023-04-24T06:01:44;5.07;;;3.22;;
57191;SDS011;43052;52.588;13.396;2023-04-24T06:04:09;4.88;;;3.08;;
57191;SDS011;43052;52.588;13.396;2023-04-24T06:06:35;3.65;;;3.00;;
57191;SDS011;43052;52.588;13.396;2023-04-24T06:09:00;4.80;;;2.70;;
57191;SDS011;43052;52.588;13.396;2023-04-24T06:11:26;4.00;;;3.30;;
57191;SDS011;43052;52.588;13.396;2023-04-24T06:13:51;4.93;;;2.95;;
57191;SDS011;43052;52.588;13.396;2023-04-24T06:16:17;3.13;;;2.83;;
57191;SDS011;43052;52.588;13.396;2023-04-24T06:18:42;10.38;;;3.83;;
57191;SDS011;43052;52.588;13.396;2023-04-24T06:21:07;3.38;;;2.65;;
57191;SDS011;43052;52.588;13.396;2023-04-24T06:23:32;5.28;;;2.85;;
57191;SDS011;43052;52.588;13.396;2023-04-24T06:25:58;3.78;;;2.50;;
57191;SDS011;43052;52.588;13.396;2023-04-24T06:28:24;5.35;;;2.50;;
57191;SDS011;43052;52.588;13.396;2023-04-24T06:30:50;2.53;;;2.30;;
57191;SDS011;43052;52.588;13.396;2023-04-24T06:33:16;3.85;;;2.72;;
57191;SDS011;43052;52.588;13.396;2023-04-24T06:35:41;2.88;;;2.47;;
57191;SDS011;43052;52.588;13.396;2023-04-24T06:38:06;2.88;;;2.30;;
57191;SDS011;43052;52.588;13.396;2023-04-24T06:40:31;2.70;;;2.40;;
57191;SDS011;43052;52.588;13.396;2023-04-24T06:42:57;3.60;;;2.70;;
57191;SDS011;43052;52.588;13.396;2023-04-24T06:45:23;4.55;;;2.50;;
57191;SDS011;43052;52.588;13.396;2023-04-24T06:47:48;4.60;;;2.58;;
57191;SDS011;43052;52.588;13.396;2023-04-24T06:50:13;4.20;;;2.50;;
57191;SDS011;43052;52.588;13.396;2023-04-24T06:52:40;3.25;;;1.90;;
57191;SDS011;43052;52.588;13.396;2023-04-24T06:55:05;2.30;;;2.08;;
57191;SDS011;43052;52.588;13.396;2023-04-24T06:57:31;2.22;;;2.03;;
57191;SDS011;43052;52.588;13.396;2023-04-24T06:59:56;2.00;;;1.80;;
57191;SDS011;43052;52.588;13.396;2023-04-24T07:02:22;3.33;;;1.80;;
57191;SDS011;43052;52.588;13.396;2023-04-24T07:04:47;3.30;;;1.73;;
57191;SDS011;43052;52.588;13.396;2023-04-24T07:07:12;1.60;;;1.50;;
57191;SDS011;43052;52.588;13.396;2023-04-24T07:09:39;2.15;;;1.70;;
57191;SDS011;43052;52.588;13.396;2023-04-24T07:12:05;2.90;;;1.65;;
57191;SDS011;43052;52.588;13.396;2023-04-24T07:14:32;2.50;;;1.50;;
57191;SDS011;43052;52.588;13.396;2023-04-24T07:16:57;1.47;;;1.37;;
57191;SDS011;43052;52.588;13.396;2023-04-24T07:19:22;4.45;;;1.60;;
57191;SDS011;43052;52.588;13.396;2023-04-24T07:21:48;1.70;;;1.60;;
57191;SDS011;43052;52.588;13.396;2023-04-24T07:24:13;1.60;;;1.50;;
57191;SDS011;43052;52.588;13.396;2023-04-24T07:26:38;1.70;;;1.40;;
57191;SDS011;43052;52.588;13.396;2023-04-24T07:29:04;1.40;;;1.30;;
57191;SDS011;43052;52.588;13.396;2023-04-24T07:31:30;1.40;;;1.30;;
57191;SDS011;43052;52.588;13.396;2023-04-24T07:33:56;1.30;;;1.20;;
57191;SDS011;43052;52.588;13.396;2023-04-24T07:36:23;2.72;;;1.17;;
57191;SDS011;43052;52.588;13.396;2023-04-24T07:38:49;1.95;;;1.50;;
57191;SDS011;43052;52.588;13.396;2023-04-24T07:41:14;3.00;;;1.30;;
57191;SDS011;43052;52.588;13.396;2023-04-24T07:43:40;1.40;;;1.30;;
57191;SDS011;43052;52.588;13.396;2023-04-24T07:46:06;1.33;;;1.30;;
57191;SDS011;43052;52.588;13.396;2023-04-24T07:48:31;2.60;;;1.40;;
57191;SDS011;43052;52.588;13.396;2023-04-24T07:50:57;2.70;;;1.50;;
57191;SDS011;43052;52.588;13.396;2023-04-24T07:53:22;1.23;;;1.13;;
57191;SDS011;43052;52.588;13.396;2023-04-24T07:55:47;1.27;;;1.10;;
57191;SDS011;43052;52.588;13.396;2023-04-24T07:58:13;1.10;;;1.10;;
57191;SDS011;43052;52.588;13.396;2023-04-24T08:00:38;1.33;;;1.20;;
57191;SDS011;43052;52.588;13.396;2023-04-24T08:03:03;1.50;;;1.40;;
57191;SDS011;43052;52.588;13.396;2023-04-24T08:05:28;2.20;;;1.10;;
57191;SDS011;43052;52.588;13.396;2023-04-24T08:07:54;1.77;;;1.40;;
57191;SDS011;43052;52.588;13.396;2023-04-24T08:10:21;1.33;;;1.10;;
57191;SDS011;43052;52.588;13.396;2023-04-24T08:12:47;1.45;;;1.20;;
57191;SDS011;43052;52.588;13.396;2023-04-24T08:15:13;1.23;;;1.13;;
57191;SDS011;43052;52.588;13.396;2023-04-24T08:17:38;1.40;;;1.30;;
57191;SDS011;43052;52.588;13.396;2023-04-24T08:20:03;1.23;;;0.97;;
57191;SDS011;43052;52.588;13.396;2023-04-24T08:22:30;1.15;;;1.00;;
57191;SDS011;43052;52.588;13.396;2023-04-24T08:24:56;1.20;;;1.10;;
57191;SDS011;43052;52.588;13.396;2023-04-24T08:27:22;1.33;;;1.20;;
57191;SDS011;43052;52.588;13.396;2023-04-24T08:29:47;1.75;;;1.00;;
57191;SDS011;43052;52.588;13.396;2023-04-24T08:32:13;1.95;;;1.20;;
57191;SDS011;43052;52.588;13.396;2023-04-24T08:34:38;1.70;;;1.00;;
57191;SDS011;43052;52.588;13.396;2023-04-24T08:37:03;1.63;;;1.10;;
57191;SDS011;43052;52.588;13.396;2023-04-24T08:39:29;1.05;;;1.05;;
57191;SDS011;43052;52.588;13.396;2023-04-24T08:41:55;1.47;;;1.10;;
57191;SDS011;43052;52.588;13.396;2023-04-24T08:44:20;1.42;;;1.20;;
57191;SDS011;43052;52.588;13.396;2023-04-24T08:46:47;2.53;;;1.10;;
57191;SDS011;43052;52.588;13.396;2023-04-24T08:49:14;1.40;;;1.10;;
57191;SDS011;43052;52.588;13.396;2023-04-24T08:51:42;1.70;;;1.20;;
57191;SDS011;43052;52.588;13.396;2023-04-24T08:54:09;1.13;;;1.02;;
57191;SDS011;43052;52.588;13.396;2023-04-24T08:56:36;1.85;;;1.38;;
57191;SDS011;43052;52.588;13.396;2023-04-24T08:59:04;1.85;;;1.20;;
57191;SDS011;43052;52.588;13.396;2023-04-24T09:01:32;2.28;;;1.00;;
57191;SDS011;43052;52.588;13.396;2023-04-24T09:03:59;1.00;;;0.90;;
57191;SDS011;43052;52.588;13.396;2023-04-24T09:06:30;0.90;;;0.90;;
57191;SDS011;43052;52.588;13.396;2023-04-24T09:08:57;1.95;;;1.08;;
57191;SDS011;43052;52.588;13.396;2023-04-24T09:11:25;1.88;;;1.15;;
57191;SDS011;43052;52.588;13.396;2023-04-24T09:13:52;1.52;;;0.98;;
57191;SDS011;43052;52.588;13.396;2023-04-24T09:16:19;1.65;;;1.00;;
57191;SDS011;43052;52.588;13.396;2023-04-24T09:18:45;1.10;;;0.90;;
57191;SDS011;43052;52.588;13.396;2023-04-24T09:21:10;1.63;;;1.20;;
57191;SDS011;43052;52.588;13.396;2023-04-24T09:23:36;1.70;;;1.10;;
57191;SDS011;43052;52.588;13.396;2023-04-24T09:26:02;2.13;;;0.95;;
57191;SDS011;43052;52.588;13.396;2023-04-24T09:28:31;1.42;;;1.17;;
57191;SDS011;43052;52.588;13.396;2023-04-24T09:36:26;0.98;;;0.98;;
57191;SDS011;43052;52.588;13.396;2023-04-24T09:39:10;1.15;;;1.08;;
57191;SDS011;43052;52.588;13.396;2023-04-24T09:41:53;1.10;;;1.00;;
57191;SDS011;43052;52.588;13.396;2023-04-24T09:44:24;5.68;;;1.40;;
57191;SDS011;43052;52.588;13.396;2023-04-24T09:46:50;0.98;;;0.90;;
57191;SDS011;43052;52.588;13.396;2023-04-24T09:49:27;1.75;;;0.90;;
57191;SDS011;43052;52.588;13.396;2023-04-24T09:52:02;1.25;;;1.00;;
57191;SDS011;43052;52.588;13.396;2023-04-24T09:56:54;2.58;;;1.40;;
57191;SDS011;43052;52.588;13.396;2023-04-24T09:59:20;1.52;;;1.30;;
57191;SDS011;43052;52.588;13.396;2023-04-24T10:01:45;1.58;;;1.20;;
57191;SDS011;43052;52.588;13.396;2023-04-24T10:04:15;2.28;;;1.20;;
57191;SDS011;43052;52.588;13.396;2023-04-24T10:06:44;1.80;;;1.30;;
57191;SDS011;43052;52.588;13.396;2023-04-24T10:09:10;2.65;;;1.35;;
57191;SDS011;43052;52.588;13.396;2023-04-24T10:11:38;2.25;;;1.10;;
57191;SDS011;43052;52.588;13.396;2023-04-24T10:14:06;2.22;;;1.75;;
57191;SDS011;43052;52.588;13.396;2023-04-24T10:16:35;2.35;;;1.60;;
57191;SDS011;43052;52.588;13.396;2023-04-24T10:19:01;1.92;;;1.45;;
57191;SDS011;43052;52.588;13.396;2023-04-24T10:21:28;1.33;;;1.20;;
57191;SDS011;43052;52.588;13.396;2023-04-24T10:23:53;1.70;;;1.05;;
57191;SDS011;43052;52.588;13.396;2023-04-24T10:26:18;1.40;;;1.30;;
57191;SDS011;43052;52.588;13.396;2023-04-24T10:28:47;1.20;;;1.00;;
57191;SDS011;43052;52.588;13.396;2023-04-24T10:31:13;1.45;;;1.05;;
57191;SDS011;43052;52.588;13.396;2023-04-24T10:33:40;2.90;;;1.23;;
57191;SDS011;43052;52.588;13.396;2023-04-24T10:36:07;2.47;;;1.48;;
57191;SDS011;43052;52.588;13.396;2023-04-24T10:38:34;2.17;;;1.33;;
57191;SDS011;43052;52.588;13.396;2023-04-24T10:41:08;3.03;;;1.20;;
57191;SDS011;43052;52.588;13.396;2023-04-24T10:43:39;3.00;;;1.15;;
57191;SDS011;43052;52.588;13.396;2023-04-24T10:46:05;2.85;;;1.38;;
57191;SDS011;43052;52.588;13.396;2023-04-24T10:48:31;1.58;;;1.20;;
57191;SDS011;43052;52.588;13.396;2023-04-24T10:50:57;3.10;;;1.63;;
57191;SDS011;43052;52.588;13.396;2023-04-24T10:53:23;1.80;;;1.10;;
57191;SDS011;43052;52.588;13.396;2023-04-24T10:56:05;6.80;;;1.63;;
57191;SDS011;43052;52.588;13.396;2023-04-24T10:58:41;1.25;;;1.13;;
57191;SDS011;43052;52.588;13.396;2023-04-24T11:01:22;2.30;;;1.27;;
57191;SDS011;43052;52.588;13.396;2023-04-24T11:06:31;3.33;;;1.45;;
57191;SDS011;43052;52.588;13.396;2023-04-24T11:11:38;2.95;;;1.23;;
57191;SDS011;43052;52.588;13.396;2023-04-24T11:14:10;1.50;;;1.30;;
57191;SDS011;43052;52.588;13.396;2023-04-24T11:16:37;1.95;;;1.20;;
57191;SDS011;43052;52.588;13.396;2023-04-24T11:21:41;3.08;;;1.30;;
57191;SDS011;43052;52.588;13.396;2023-04-24T11:27:05;2.20;;;1.20;;
57191;SDS011;43052;52.588;13.396;2023-04-24T11:29:43;3.22;;;1.40;;
57191;SDS011;43052;52.588;13.396;2023-04-24T11:32:15;3.40;;;1.20;;
57191;SDS011;43052;52.588;13.396;2023-04-24T11:34:49;2.15;;;1.20;;
57191;SDS011;43052;52.588;13.396;2023-04-24T11:37:17;1.20;;;1.10;;
57191;SDS011;43052;52.588;13.396;2023-04-24T11:39:42;1.10;;;1.00;;
57191;SDS011;43052;52.588;13.396;2023-04-24T11:42:08;1.65;;;1.20;;
57191;SDS011;43052;52.588;13.396;2023-04-24T11:44:34;2.92;;;1.38;;
57191;SDS011;43052;52.588;13.396;2023-04-24T11:47:02;2.28;;;1.30;;
57191;SDS011;43052;52.588;13.396;2023-04-24T11:49:29;3.83;;;1.50;;
57191;SDS011;43052;52.588;13.396;2023-04-24T11:51:55;4.32;;;1.80;;
57191;SDS011;43052;52.588;13.396;2023-04-24T11:54:20;6.20;;;2.33;;
57191;SDS011;43052;52.588;13.396;2023-04-24T11:56:46;2.70;;;1.40;;
57191;SDS011;43052;52.588;13.396;2023-04-24T11:59:12;2.35;;;1.50;;
57191;SDS011;43052;52.588;13.396;2023-04-24T12:01:46;1.77;;;1.33;;
57191;SDS011;43052;52.588;13.396;2023-04-24T12:04:13;3.78;;;1.67;;
57191;SDS011;43052;52.588;13.396;2023-04-24T12:06:39;2.03;;;1.83;;
57191;SDS011;43052;52.588;13.396;2023-04-24T12:09:04;3.50;;;1.67;;
57191;SDS011;43052;52.588;13.396;2023-04-24T12:11:30;3.25;;;1.52;;
57191;SDS011;43052;52.588;13.396;2023-04-24T12:13:55;1.95;;;1.45;;
57191;SDS011;43052;52.588;13.396;2023-04-24T12:16:21;2.03;;;1.70;;
57191;SDS011;43052;52.588;13.396;2023-04-24T12:18:46;2.17;;;1.98;;
57191;SDS011;43052;52.588;13.396;2023-04-24T12:21:21;1.90;;;1.70;;
57191;SDS011;43052;52.588;13.396;2023-04-24T12:23:47;2.28;;;1.90;;
57191;SDS011;43052;52.588;13.396;2023-04-24T12:26:19;1.90;;;1.80;;
57191;SDS011;43052;52.588;13.396;2023-04-24T12:28:46;2.38;;;2.00;;
57191;SDS011;43052;52.588;13.396;2023-04-24T12:31:13;3.38;;;1.90;;
57191;SDS011;43052;52.588;13.396;2023-04-24T12:33:38;2.30;;;1.85;;
57191;SDS011;43052;52.588;13.396;2023-04-24T12:36:04;2.58;;;1.60;;
57191;SDS011;43052;52.588;13.396;2023-04-24T12:38:30;1.75;;;1.60;;
57191;SDS011;43052;52.588;13.396;2023-04-24T12:41:05;1.52;;;1.40;;
57191;SDS011;43052;52.588;13.396;2023-04-24T12:43:35;2.22;;;1.50;;
57191;SDS011;43052;52.588;13.396;2023-04-24T12:46:00;1.75;;;1.40;;
57191;SDS011;43052;52.588;13.396;2023-04-24T12:48:26;1.92;;;1.33;;
57191;SDS011;43052;52.588;13.396;2023-04-24T12:50:53;2.17;;;1.20;;
57191;SDS011;43052;52.588;13.396;2023-04-24T12:53:18;4.38;;;1.40;;
57191;SDS011;43052;52.588;13.396;2023-04-24T12:55:44;2.28;;;1.20;;
57191;SDS011;43052;52.588;13.396;2023-04-24T12:58:09;2.13;;;1.20;;
57191;SDS011;43052;52.588;13.396;2023-04-24T13:00:35;2.17;;;1.30;;
57191;SDS011;43052;52.588;13.396;2023-04-24T13:03:01;3.90;;;1.25;;
57191;SDS011;43052;52.588;13.396;2023-04-24T13:05:26;1.20;;;1.08;;
57191;SDS011;43052;52.588;13.396;2023-04-24T13:07:52;2.83;;;1.35;;
57191;SDS011;43052;52.588;13.396;2023-04-24T13:10:17;2.42;;;1.40;;
57191;SDS011;43052;52.588;13.396;2023-04-24T13:12:43;2.95;;;1.35;;
57191;SDS011;43052;52.588;13.396;2023-04-24T13:15:11;2.33;;;1.48;;
57191;SDS011;43052;52.588;13.396;2023-04-24T13:17:36;2.20;;;1.50;;
57191;SDS011;43052;52.588;13.396;2023-04-24T13:20:02;1.42;;;1.33;;
57191;SDS011;43052;52.588;13.396;2023-04-24T13:22:28;2.83;;;1.50;;
57191;SDS011;43052;52.588;13.396;2023-04-24T13:24:53;1.60;;;1.20;;
57191;SDS011;43052;52.588;13.396;2023-04-24T13:27:18;1.98;;;1.40;;
57191;SDS011;43052;52.588;13.396;2023-04-24T13:29:43;3.50;;;1.67;;
57191;SDS011;43052;52.588;13.396;2023-04-24T13:32:09;2.00;;;1.50;;
57191;SDS011;43052;52.588;13.396;2023-04-24T13:34:35;3.60;;;1.48;;
57191;SDS011;43052;52.588;13.396;2023-04-24T13:37:01;2.47;;;1.50;;
57191;SDS011;43052;52.588;13.396;2023-04-24T13:39:28;2.75;;;1.65;;
57191;SDS011;43052;52.588;13.396;2023-04-24T13:41:53;2.40;;;1.67;;
57191;SDS011;43052;52.588;13.396;2023-04-24T13:44:19;2.80;;;1.50;;
57191;SDS011;43052;52.588;13.396;2023-04-24T13:46:46;2.22;;;1.40;;
57191;SDS011;43052;52.588;13.396;2023-04-24T13:49:13;2.67;;;1.40;;
57191;SDS011;43052;52.588;13.396;2023-04-24T13:51:39;3.25;;;1.83;;
57191;SDS011;43052;52.588;13.396;2023-04-24T13:54:05;2.25;;;1.50;;
57191;SDS011;43052;52.588;13.396;2023-04-24T13:56:30;2.38;;;1.30;;
57191;SDS011;43052;52.588;13.396;2023-04-24T13:58:56;2.70;;;1.33;;
57191;SDS011;43052;52.588;13.396;2023-04-24T14:01:21;2.00;;;1.50;;
57191;SDS011;43052;52.588;13.396;2023-04-24T14:03:49;3.83;;;1.60;;
57191;SDS011;43052;52.588;13.396;2023-04-24T14:06:16;2.40;;;1.30;;
57191;SDS011;43052;52.588;13.396;2023-04-24T14:08:41;1.95;;;1.33;;
57191;SDS011;43052;52.588;13.396;2023-04-24T14:11:06;5.10;;;1.63;;
57191;SDS011;43052;52.588;13.396;2023-04-24T14:13:32;4.45;;;1.50;;
57191;SDS011;43052;52.588;13.396;2023-04-24T14:15:58;25.02;;;6.30;;
57191;SDS011;43052;52.588;13.396;2023-04-24T14:18:23;9.02;;;2.92;;
57191;SDS011;43052;52.588;13.396;2023-04-24T14:20:49;3.72;;;1.45;;
57191;SDS011;43052;52.588;13.396;2023-04-24T14:23:15;3.42;;;1.35;;
57191;SDS011;43052;52.588;13.396;2023-04-24T14:25:40;1.80;;;1.42;;
57191;SDS011;43052;52.588;13.396;2023-04-24T14:28:06;2.70;;;1.42;;
57191;SDS011;43052;52.588;13.396;2023-04-24T14:30:32;2.28;;;1.42;;
57191;SDS011;43052;52.588;13.396;2023-04-24T14:32:57;1.65;;;1.05;;
57191;SDS011;43052;52.588;13.396;2023-04-24T14:35:22;3.30;;;1.38;;
57191;SDS011;43052;52.588;13.396;2023-04-24T14:37:47;3.78;;;1.73;;
57191;SDS011;43052;52.588;13.396;2023-04-24T14:40:14;2.25;;;1.20;;
57191;SDS011;43052;52.588;13.396;2023-04-24T14:42:39;2.63;;;1.85;;
57191;SDS011;43052;52.588;13.396;2023-04-24T14:45:05;2.45;;;1.30;;